sensor_id;sensor_type;location;lat;lon;timestamp;pressure;altitude;pressure_sealevel;temperature;humidity
39613;BME280;25303;48.896;13.342;2023-08-20T00:01:58;93383.88;;;23.21;51.24
39613;BME280;25303;48.896;13.342;2023-08-20T00:04:45;93396.59;;;23.17;51.26
39613;BME280;25303;48.896;13.342;2023-08-20T00:07:31;93393.88;;;23.12;51.46
39613;BME280;25303;48.896;13.342;2023-08-20T00:10:14;93391.91;;;23.08;51.26
39613;BME280;25303;48.896;13.342;2023-08-20T00:12:58;93394.16;;;23.04;51.41
39613;BME280;25303;48.896;13.342;2023-08-20T00:15:41;93390.94;;;23.02;51.43
39613;BME280;25303;48.896;13.342;2023-08-20T00:18:25;93391.75;;;23.02;51.31
39613;BME280;25303;48.896;13.342;2023-08-20T00:21:09;93401.44;;;23.02;51.36
39613;BME280;25303;48.896;13.342;2023-08-20T00:23:54;93399.63;;;23.02;51.12
39613;BME280;25303;48.896;13.342;2023-08-20T00:26:37;93401.81;;;23.05;51.03
39613;BME280;25303;48.896;13.342;2023-08-20T00:29:21;93400.94;;;23.12;51.12
39613;BME280;25303;48.896;13.342;2023-08-20T00:32:04;93400.50;;;23.15;51.10
39613;BME280;25303;48.896;13.342;2023-08-20T00:34:47;93391.59;;;23.16;50.98
39613;BME280;25303;48.896;13.342;2023-08-20T00:37:31;93390.56;;;23.17;51.17
39613;BME280;25303;48.896;13.342;2023-08-20T00:40:16;93388.63;;;23.31;50.96
39613;BME280;25303;48.896;13.342;2023-08-20T00:42:58;93384.97;;;23.32;51.14
39613;BME280;25303;48.896;13.342;2023-08-20T00:45:42;93386.47;;;23.40;51.17
39613;BME280;25303;48.896;13.342;2023-08-20T00:48:26;93384.34;;;23.48;51.10
39613;BME280;25303;48.896;13.342;2023-08-20T00:51:09;93387.66;;;23.56;51.23
39613;BME280;25303;48.896;13.342;2023-08-20T00:53:53;93387.00;;;23.60;50.86
39613;BME280;25303;48.896;13.342;2023-08-20T00:56:38;93380.28;;;23.64;50.74
39613;BME280;25303;48.896;13.342;2023-08-20T00:59:21;93385.31;;;23.66;50.79
39613;BME280;25303;48.896;13.342;2023-08-20T01:02:04;93382.56;;;23.61;50.98
39613;BME280;25303;48.896;13.342;2023-08-20T01:04:48;93373.94;;;23.54;50.83
39613;BME280;25303;48.896;13.342;2023-08-20T01:07:47;93383.75;;;23.46;50.97
39613;BME280;25303;48.896;13.342;2023-08-20T01:10:39;93383.63;;;23.41;51.14
39613;BME280;25303;48.896;13.342;2023-08-20T01:13:26;93385.31;;;23.35;51.11
39613;BME280;25303;48.896;13.342;2023-08-20T01:16:10;93380.25;;;23.34;50.61
39613;BME280;25303;48.896;13.342;2023-08-20T01:18:53;93386.09;;;23.36;50.66
39613;BME280;25303;48.896;13.342;2023-08-20T01:21:38;93384.50;;;23.35;50.80
39613;BME280;25303;48.896;13.342;2023-08-20T01:24:35;93379.47;;;23.33;50.51
39613;BME280;25303;48.896;13.342;2023-08-20T01:27:39;93389.06;;;23.28;50.74
39613;BME280;25303;48.896;13.342;2023-08-20T01:30:28;93386.06;;;23.24;50.87
39613;BME280;25303;48.896;13.342;2023-08-20T01:33:12;93390.94;;;23.20;50.84
39613;BME280;25303;48.896;13.342;2023-08-20T01:35:56;93395.03;;;23.16;50.81
39613;BME280;25303;48.896;13.342;2023-08-20T01:38:39;93393.19;;;23.17;50.77
39613;BME280;25303;48.896;13.342;2023-08-20T01:41:22;93396.50;;;23.12;51.10
39613;BME280;25303;48.896;13.342;2023-08-20T01:44:05;93397.16;;;23.08;51.23
39613;BME280;25303;48.896;13.342;2023-08-20T01:46:50;93396.34;;;23.07;51.17
39613;BME280;25303;48.896;13.342;2023-08-20T01:49:33;93393.56;;;23.02;51.21
39613;BME280;25303;48.896;13.342;2023-08-20T01:52:16;93397.66;;;22.98;51.14
39613;BME280;25303;48.896;13.342;2023-08-20T01:54:59;93395.25;;;22.96;51.34
39613;BME280;25303;48.896;13.342;2023-08-20T01:57:42;93397.88;;;22.96;51.40
39613;BME280;25303;48.896;13.342;2023-08-20T02:00:25;93395.25;;;22.96;51.74
39613;BME280;25303;48.896;13.342;2023-08-20T02:03:13;93385.75;;;22.95;52.03
39613;BME280;25303;48.896;13.342;2023-08-20T02:05:56;93388.38;;;22.95;52.08
39613;BME280;25303;48.896;13.342;2023-08-20T02:08:39;93391.84;;;22.96;52.10
39613;BME280;25303;48.896;13.342;2023-08-20T02:11:22;93396.06;;;22.97;52.21
39613;BME280;25303;48.896;13.342;2023-08-20T02:14:05;93395.84;;;22.98;52.21
39613;BME280;25303;48.896;13.342;2023-08-20T02:16:48;93400.50;;;22.96;52.18
39613;BME280;25303;48.896;13.342;2023-08-20T02:19:33;93405.03;;;22.89;52.34
39613;BME280;25303;48.896;13.342;2023-08-20T02:22:16;93399.63;;;22.84;52.53
39613;BME280;25303;48.896;13.342;2023-08-20T02:25:02;93402.91;;;22.79;52.61
39613;BME280;25303;48.896;13.342;2023-08-20T02:27:45;93393.63;;;22.76;52.61
39613;BME280;25303;48.896;13.342;2023-08-20T02:30:28;93395.91;;;22.73;52.68
39613;BME280;25303;48.896;13.342;2023-08-20T02:33:11;93406.84;;;22.70;52.95
39613;BME280;25303;48.896;13.342;2023-08-20T02:36:00;93398.00;;;22.64;53.04
39613;BME280;25303;48.896;13.342;2023-08-20T02:38:44;93393.50;;;22.53;53.11
39613;BME280;25303;48.896;13.342;2023-08-20T02:41:29;93398.66;;;22.59;53.07
39613;BME280;25303;48.896;13.342;2023-08-20T02:44:12;93396.47;;;22.56;53.08
39613;BME280;25303;48.896;13.342;2023-08-20T02:46:55;93398.91;;;22.58;53.06
39613;BME280;25303;48.896;13.342;2023-08-20T02:49:38;93396.84;;;22.60;53.18
39613;BME280;25303;48.896;13.342;2023-08-20T02:52:22;93397.59;;;22.67;53.09
39613;BME280;25303;48.896;13.342;2023-08-20T02:55:08;93401.41;;;22.90;52.40
39613;BME280;25303;48.896;13.342;2023-08-20T02:57:51;93402.50;;;22.82;52.57
39613;BME280;25303;48.896;13.342;2023-08-20T03:00:34;93395.75;;;22.86;52.45
39613;BME280;25303;48.896;13.342;2023-08-20T03:03:18;93396.94;;;22.90;52.80
39613;BME280;25303;48.896;13.342;2023-08-20T03:06:01;93394.91;;;22.92;52.69
39613;BME280;25303;48.896;13.342;2023-08-20T03:08:45;93396.28;;;22.95;52.55
39613;BME280;25303;48.896;13.342;2023-08-20T03:11:28;93399.91;;;22.94;52.53
39613;BME280;25303;48.896;13.342;2023-08-20T03:14:11;93396.56;;;22.87;52.98
39613;BME280;25303;48.896;13.342;2023-08-20T03:16:54;93399.03;;;22.82;52.68
39613;BME280;25303;48.896;13.342;2023-08-20T03:19:53;93389.41;;;22.94;52.29
39613;BME280;25303;48.896;13.342;2023-08-20T03:22:37;93400.50;;;22.96;52.21
39613;BME280;25303;48.896;13.342;2023-08-20T03:25:22;93392.19;;;22.99;52.16
39613;BME280;25303;48.896;13.342;2023-08-20T03:28:05;93400.28;;;23.16;51.83
39613;BME280;25303;48.896;13.342;2023-08-20T03:30:50;93403.66;;;23.24;51.61
39613;BME280;25303;48.896;13.342;2023-08-20T03:33:35;93406.31;;;23.17;51.98
39613;BME280;25303;48.896;13.342;2023-08-20T03:36:18;93401.84;;;23.17;51.78
39613;BME280;25303;48.896;13.342;2023-08-20T03:39:00;93397.19;;;23.19;51.94
39613;BME280;25303;48.896;13.342;2023-08-20T03:41:46;93413.63;;;23.15;51.90
39613;BME280;25303;48.896;13.342;2023-08-20T03:44:30;93406.75;;;23.14;51.44
39613;BME280;25303;48.896;13.342;2023-08-20T03:47:13;93410.28;;;23.26;51.22
39613;BME280;25303;48.896;13.342;2023-08-20T03:49:57;93417.50;;;23.31;51.31
39613;BME280;25303;48.896;13.342;2023-08-20T03:52:41;93421.28;;;23.35;51.40
39613;BME280;25303;48.896;13.342;2023-08-20T03:55:25;93422.69;;;23.38;51.30
39613;BME280;25303;48.896;13.342;2023-08-20T03:58:09;93421.44;;;23.40;51.34
39613;BME280;25303;48.896;13.342;2023-08-20T04:00:52;93424.88;;;23.41;51.46
39613;BME280;25303;48.896;13.342;2023-08-20T04:03:36;93423.03;;;23.41;51.22
39613;BME280;25303;48.896;13.342;2023-08-20T04:06:19;93422.25;;;23.41;51.44
39613;BME280;25303;48.896;13.342;2023-08-20T04:09:02;93421.78;;;23.44;51.63
39613;BME280;25303;48.896;13.342;2023-08-20T04:11:45;93419.16;;;23.44;51.44
39613;BME280;25303;48.896;13.342;2023-08-20T04:14:29;93416.31;;;23.45;51.49
39613;BME280;25303;48.896;13.342;2023-08-20T04:17:12;93419.28;;;23.49;51.52
39613;BME280;25303;48.896;13.342;2023-08-20T04:19:55;93418.63;;;23.54;51.39
39613;BME280;25303;48.896;13.342;2023-08-20T04:22:38;93426.41;;;23.60;51.41
39613;BME280;25303;48.896;13.342;2023-08-20T04:25:22;93428.59;;;23.63;51.35
39613;BME280;25303;48.896;13.342;2023-08-20T04:28:05;93422.91;;;23.66;51.28
39613;BME280;25303;48.896;13.342;2023-08-20T04:30:52;93427.72;;;23.70;51.35
39613;BME280;25303;48.896;13.342;2023-08-20T04:33:37;93427.28;;;23.73;51.39
39613;BME280;25303;48.896;13.342;2023-08-20T04:36:21;93427.81;;;23.75;51.36
39613;BME280;25303;48.896;13.342;2023-08-20T04:39:04;93429.22;;;23.77;51.37
39613;BME280;25303;48.896;13.342;2023-08-20T04:41:50;93429.81;;;23.79;51.44
39613;BME280;25303;48.896;13.342;2023-08-20T04:44:35;93425.13;;;23.81;51.64
39613;BME280;25303;48.896;13.342;2023-08-20T04:47:20;93423.28;;;23.82;51.53
39613;BME280;25303;48.896;13.342;2023-08-20T04:50:03;93423.88;;;23.84;51.67
39613;BME280;25303;48.896;13.342;2023-08-20T04:52:48;93437.59;;;23.86;51.71
39613;BME280;25303;48.896;13.342;2023-08-20T04:55:31;93419.19;;;23.86;51.66
39613;BME280;25303;48.896;13.342;2023-08-20T04:58:14;93426.06;;;23.87;51.92
39613;BME280;25303;48.896;13.342;2023-08-20T05:00:57;93429.28;;;23.89;51.31
39613;BME280;25303;48.896;13.342;2023-08-20T05:03:42;93427.06;;;24.28;50.14
39613;BME280;25303;48.896;13.342;2023-08-20T05:06:25;93428.59;;;23.94;51.07
39613;BME280;25303;48.896;13.342;2023-08-20T05:09:08;93436.69;;;23.92;51.32
39613;BME280;25303;48.896;13.342;2023-08-20T05:11:51;93435.91;;;23.92;52.02
39613;BME280;25303;48.896;13.342;2023-08-20T05:14:34;93437.94;;;23.90;52.14
39613;BME280;25303;48.896;13.342;2023-08-20T05:17:17;93436.78;;;23.86;52.16
39613;BME280;25303;48.896;13.342;2023-08-20T05:20:02;93440.66;;;23.83;52.29
39613;BME280;25303;48.896;13.342;2023-08-20T05:22:45;93443.75;;;23.80;52.31
39613;BME280;25303;48.896;13.342;2023-08-20T05:25:28;93446.38;;;23.80;52.51
39613;BME280;25303;48.896;13.342;2023-08-20T05:28:11;93456.09;;;23.79;52.81
39613;BME280;25303;48.896;13.342;2023-08-20T05:30:56;93454.69;;;23.77;53.26
39613;BME280;25303;48.896;13.342;2023-08-20T05:33:39;93459.75;;;23.78;53.50
39613;BME280;25303;48.896;13.342;2023-08-20T05:36:24;93454.50;;;23.78;53.38
39613;BME280;25303;48.896;13.342;2023-08-20T05:39:07;93457.22;;;23.72;53.76
39613;BME280;25303;48.896;13.342;2023-08-20T05:41:50;93465.88;;;23.72;53.71
39613;BME280;25303;48.896;13.342;2023-08-20T05:44:36;93467.19;;;23.81;53.68
39613;BME280;25303;48.896;13.342;2023-08-20T05:47:20;93467.41;;;23.80;54.29
39613;BME280;25303;48.896;13.342;2023-08-20T05:50:04;93470.53;;;23.89;54.44
39613;BME280;25303;48.896;13.342;2023-08-20T05:52:49;93470.44;;;23.95;54.54
39613;BME280;25303;48.896;13.342;2023-08-20T05:55:32;93482.94;;;24.00;54.37
39613;BME280;25303;48.896;13.342;2023-08-20T05:58:15;93479.75;;;23.98;54.42
39613;BME280;25303;48.896;13.342;2023-08-20T06:00:58;93481.56;;;23.97;54.21
39613;BME280;25303;48.896;13.342;2023-08-20T06:03:41;93479.56;;;23.93;54.16
39613;BME280;25303;48.896;13.342;2023-08-20T06:06:23;93481.19;;;23.94;53.88
39613;BME280;25303;48.896;13.342;2023-08-20T06:09:08;93481.63;;;23.91;54.05
39613;BME280;25303;48.896;13.342;2023-08-20T06:11:51;93481.28;;;23.87;54.39
39613;BME280;25303;48.896;13.342;2023-08-20T06:14:34;93482.25;;;23.74;54.98
39613;BME280;25303;48.896;13.342;2023-08-20T06:17:17;93487.94;;;23.71;55.62
39613;BME280;25303;48.896;13.342;2023-08-20T06:20:00;93490.63;;;23.83;55.63
39613;BME280;25303;48.896;13.342;2023-08-20T06:22:46;93487.91;;;23.90;55.87
39613;BME280;25303;48.896;13.342;2023-08-20T06:25:31;93491.47;;;23.95;55.87
39613;BME280;25303;48.896;13.342;2023-08-20T06:28:14;93487.16;;;24.01;56.05
39613;BME280;25303;48.896;13.342;2023-08-20T06:30:57;93489.78;;;24.01;55.94
39613;BME280;25303;48.896;13.342;2023-08-20T06:33:40;93488.81;;;24.14;54.85
39613;BME280;25303;48.896;13.342;2023-08-20T06:36:23;93488.03;;;24.25;54.58
39613;BME280;25303;48.896;13.342;2023-08-20T06:39:06;93494.78;;;24.33;54.59
39613;BME280;25303;48.896;13.342;2023-08-20T06:41:50;93492.28;;;24.38;54.82
39613;BME280;25303;48.896;13.342;2023-08-20T06:44:34;93494.25;;;24.43;54.43
39613;BME280;25303;48.896;13.342;2023-08-20T06:47:18;93492.56;;;24.49;54.61
39613;BME280;25303;48.896;13.342;2023-08-20T06:50:01;93487.97;;;24.56;54.65
39613;BME280;25303;48.896;13.342;2023-08-20T06:52:44;93487.06;;;24.62;54.41
39613;BME280;25303;48.896;13.342;2023-08-20T06:55:26;93492.22;;;24.69;54.36
39613;BME280;25303;48.896;13.342;2023-08-20T06:58:11;93492.94;;;24.76;54.59
39613;BME280;25303;48.896;13.342;2023-08-20T07:00:54;93493.06;;;24.81;54.72
39613;BME280;25303;48.896;13.342;2023-08-20T07:03:38;93498.66;;;24.85;54.63
39613;BME280;25303;48.896;13.342;2023-08-20T07:06:21;93499.34;;;24.92;54.05
39613;BME280;25303;48.896;13.342;2023-08-20T07:09:04;93501.09;;;24.98;54.14
39613;BME280;25303;48.896;13.342;2023-08-20T07:11:47;93505.41;;;25.05;54.50
39613;BME280;25303;48.896;13.342;2023-08-20T07:14:31;93504.72;;;25.09;54.94
39613;BME280;25303;48.896;13.342;2023-08-20T07:17:14;93506.69;;;25.14;54.46
39613;BME280;25303;48.896;13.342;2023-08-20T07:19:57;93506.78;;;25.19;54.44
39613;BME280;25303;48.896;13.342;2023-08-20T07:22:40;93511.34;;;25.24;54.52
39613;BME280;25303;48.896;13.342;2023-08-20T07:25:24;93521.22;;;25.28;54.26
39613;BME280;25303;48.896;13.342;2023-08-20T07:28:07;93514.78;;;25.36;53.47
39613;BME280;25303;48.896;13.342;2023-08-20T07:30:52;93513.06;;;25.42;53.19
39613;BME280;25303;48.896;13.342;2023-08-20T07:33:34;93513.97;;;25.47;52.71
39613;BME280;25303;48.896;13.342;2023-08-20T07:36:17;93511.22;;;25.54;52.84
39613;BME280;25303;48.896;13.342;2023-08-20T07:39:01;93520.38;;;25.63;52.53
39613;BME280;25303;48.896;13.342;2023-08-20T07:41:44;93517.81;;;25.69;52.43
39613;BME280;25303;48.896;13.342;2023-08-20T07:44:27;93518.16;;;25.72;52.34
39613;BME280;25303;48.896;13.342;2023-08-20T07:47:12;93529.16;;;25.81;52.33
39613;BME280;25303;48.896;13.342;2023-08-20T07:49:55;93526.13;;;25.89;52.30
39613;BME280;25303;48.896;13.342;2023-08-20T07:52:38;93524.38;;;25.95;52.57
39613;BME280;25303;48.896;13.342;2023-08-20T07:55:21;93524.81;;;26.04;51.97
39613;BME280;25303;48.896;13.342;2023-08-20T07:58:04;93529.50;;;26.14;51.80
39613;BME280;25303;48.896;13.342;2023-08-20T08:00:47;93528.31;;;26.21;51.58
39613;BME280;25303;48.896;13.342;2023-08-20T08:03:32;93521.06;;;26.29;51.34
39613;BME280;25303;48.896;13.342;2023-08-20T08:06:15;93525.38;;;26.35;50.73
39613;BME280;25303;48.896;13.342;2023-08-20T08:09:20;93535.22;;;26.39;50.53
39613;BME280;25303;48.896;13.342;2023-08-20T08:12:04;93523.97;;;26.44;50.61
39613;BME280;25303;48.896;13.342;2023-08-20T08:14:47;93528.91;;;26.41;50.87
39613;BME280;25303;48.896;13.342;2023-08-20T08:17:30;93534.53;;;26.44;50.71
39613;BME280;25303;48.896;13.342;2023-08-20T08:20:15;93526.44;;;26.51;50.87
39613;BME280;25303;48.896;13.342;2023-08-20T08:22:59;93532.91;;;26.60;50.52
39613;BME280;25303;48.896;13.342;2023-08-20T08:25:42;93532.75;;;26.67;50.42
39613;BME280;25303;48.896;13.342;2023-08-20T08:28:25;93536.84;;;26.75;50.57
39613;BME280;25303;48.896;13.342;2023-08-20T08:31:08;93534.06;;;26.81;50.54
39613;BME280;25303;48.896;13.342;2023-08-20T08:33:51;93535.50;;;26.89;50.44
39613;BME280;25303;48.896;13.342;2023-08-20T08:36:35;93532.38;;;26.92;49.74
39613;BME280;25303;48.896;13.342;2023-08-20T08:39:19;93535.91;;;26.98;50.27
39613;BME280;25303;48.896;13.342;2023-08-20T08:42:04;93533.91;;;27.05;49.74
39613;BME280;25303;48.896;13.342;2023-08-20T08:44:49;93537.41;;;27.11;49.42
39613;BME280;25303;48.896;13.342;2023-08-20T08:47:32;93533.00;;;27.17;49.49
39613;BME280;25303;48.896;13.342;2023-08-20T08:50:17;93530.19;;;27.23;49.12
39613;BME280;25303;48.896;13.342;2023-08-20T08:53:01;93529.47;;;27.28;48.96
39613;BME280;25303;48.896;13.342;2023-08-20T08:55:45;93533.47;;;27.30;48.08
39613;BME280;25303;48.896;13.342;2023-08-20T08:58:28;93531.13;;;27.34;48.62
39613;BME280;25303;48.896;13.342;2023-08-20T09:01:11;93535.56;;;27.46;48.73
39613;BME280;25303;48.896;13.342;2023-08-20T09:03:54;93542.78;;;27.55;47.99
39613;BME280;25303;48.896;13.342;2023-08-20T09:06:46;93546.63;;;27.65;47.47
39613;BME280;25303;48.896;13.342;2023-08-20T09:09:32;93544.34;;;27.73;48.07
39613;BME280;25303;48.896;13.342;2023-08-20T09:12:15;93544.66;;;27.77;46.22
39613;BME280;25303;48.896;13.342;2023-08-20T09:14:58;93553.25;;;27.89;47.34
39613;BME280;25303;48.896;13.342;2023-08-20T09:17:42;93557.06;;;27.99;46.69
39613;BME280;25303;48.896;13.342;2023-08-20T09:20:34;93557.19;;;28.09;45.32
39613;BME280;25303;48.896;13.342;2023-08-20T09:23:17;93559.22;;;28.24;46.27
39613;BME280;25303;48.896;13.342;2023-08-20T09:26:03;93563.84;;;28.39;45.67
39613;BME280;25303;48.896;13.342;2023-08-20T09:28:46;93559.97;;;28.47;45.29
39613;BME280;25303;48.896;13.342;2023-08-20T09:31:37;93564.31;;;28.58;45.84
39613;BME280;25303;48.896;13.342;2023-08-20T09:34:20;93559.47;;;28.77;46.27
39613;BME280;25303;48.896;13.342;2023-08-20T09:37:03;93557.22;;;28.96;45.53
39613;BME280;25303;48.896;13.342;2023-08-20T09:39:47;93560.28;;;29.16;45.73
39613;BME280;25303;48.896;13.342;2023-08-20T09:42:32;93553.56;;;29.40;45.83
39613;BME280;25303;48.896;13.342;2023-08-20T09:45:16;93562.50;;;29.72;45.60
39613;BME280;25303;48.896;13.342;2023-08-20T09:48:01;93562.09;;;30.01;45.35
39613;BME280;25303;48.896;13.342;2023-08-20T09:50:47;93556.88;;;30.27;44.68
39613;BME280;25303;48.896;13.342;2023-08-20T09:53:34;93559.09;;;30.61;43.56
39613;BME280;25303;48.896;13.342;2023-08-20T09:56:22;93558.00;;;30.98;43.33
39613;BME280;25303;48.896;13.342;2023-08-20T09:59:11;93560.91;;;31.43;42.24
39613;BME280;25303;48.896;13.342;2023-08-20T10:01:55;93553.09;;;31.83;41.81
39613;BME280;25303;48.896;13.342;2023-08-20T10:04:39;93553.22;;;32.18;39.21
39613;BME280;25303;48.896;13.342;2023-08-20T10:07:22;93557.28;;;32.55;40.36
39613;BME280;25303;48.896;13.342;2023-08-20T10:10:09;93561.31;;;32.92;39.71
39613;BME280;25303;48.896;13.342;2023-08-20T10:12:54;93555.66;;;33.28;38.89
39613;BME280;25303;48.896;13.342;2023-08-20T10:15:39;93561.38;;;33.70;37.59
39613;BME280;25303;48.896;13.342;2023-08-20T10:18:26;93552.75;;;34.03;37.17
39613;BME280;25303;48.896;13.342;2023-08-20T10:21:09;93555.00;;;34.34;36.15
39613;BME280;25303;48.896;13.342;2023-08-20T10:23:53;93554.25;;;34.52;35.42
39613;BME280;25303;48.896;13.342;2023-08-20T10:26:36;93552.78;;;34.60;34.62
39613;BME280;25303;48.896;13.342;2023-08-20T10:29:34;93551.25;;;34.73;33.54
39613;BME280;25303;48.896;13.342;2023-08-20T10:32:19;93554.16;;;34.96;34.88
39613;BME280;25303;48.896;13.342;2023-08-20T10:35:03;93553.72;;;35.22;34.42
39613;BME280;25303;48.896;13.342;2023-08-20T10:38:05;93550.50;;;35.39;33.19
39613;BME280;25303;48.896;13.342;2023-08-20T10:40:51;93554.50;;;35.55;33.07
39613;BME280;25303;48.896;13.342;2023-08-20T10:43:37;93551.63;;;35.66;31.82
39613;BME280;25303;48.896;13.342;2023-08-20T10:46:21;93553.63;;;35.74;32.43
39613;BME280;25303;48.896;13.342;2023-08-20T10:49:06;93555.38;;;35.93;32.02
39613;BME280;25303;48.896;13.342;2023-08-20T10:51:51;93551.13;;;36.06;31.76
39613;BME280;25303;48.896;13.342;2023-08-20T10:54:35;93555.66;;;36.19;31.82
39613;BME280;25303;48.896;13.342;2023-08-20T10:57:18;93547.09;;;36.31;31.58
39613;BME280;25303;48.896;13.342;2023-08-20T11:00:07;93548.06;;;36.49;31.11
39613;BME280;25303;48.896;13.342;2023-08-20T11:02:52;93554.31;;;36.58;30.12
39613;BME280;25303;48.896;13.342;2023-08-20T11:05:37;93543.28;;;36.60;30.14
39613;BME280;25303;48.896;13.342;2023-08-20T11:08:20;93544.16;;;36.69;29.31
39613;BME280;25303;48.896;13.342;2023-08-20T11:11:03;93544.00;;;36.74;29.99
39613;BME280;25303;48.896;13.342;2023-08-20T11:13:46;93540.44;;;36.79;29.36
39613;BME280;25303;48.896;13.342;2023-08-20T11:16:29;93548.63;;;36.97;29.47
39613;BME280;25303;48.896;13.342;2023-08-20T11:19:13;93537.47;;;37.03;28.98
39613;BME280;25303;48.896;13.342;2023-08-20T11:21:58;93549.63;;;37.09;29.49
39613;BME280;25303;48.896;13.342;2023-08-20T11:24:42;93541.28;;;37.11;28.80
39613;BME280;25303;48.896;13.342;2023-08-20T11:27:26;93551.28;;;37.19;28.63
39613;BME280;25303;48.896;13.342;2023-08-20T11:30:09;93541.78;;;37.13;28.80
39613;BME280;25303;48.896;13.342;2023-08-20T11:32:53;93538.81;;;37.23;29.17
39613;BME280;25303;48.896;13.342;2023-08-20T11:35:36;93544.38;;;37.27;29.47
39613;BME280;25303;48.896;13.342;2023-08-20T11:38:22;93539.84;;;37.36;29.62
39613;BME280;25303;48.896;13.342;2023-08-20T11:41:05;93545.13;;;37.50;29.51
39613;BME280;25303;48.896;13.342;2023-08-20T11:43:49;93535.72;;;37.62;29.18
39613;BME280;25303;48.896;13.342;2023-08-20T11:46:32;93543.63;;;37.67;29.04
39613;BME280;25303;48.896;13.342;2023-08-20T11:49:15;93538.13;;;37.72;28.74
39613;BME280;25303;48.896;13.342;2023-08-20T11:51:58;93541.44;;;37.78;28.26
39613;BME280;25303;48.896;13.342;2023-08-20T11:54:43;93536.06;;;37.78;28.08
39613;BME280;25303;48.896;13.342;2023-08-20T11:57:26;93535.63;;;37.84;28.60
39613;BME280;25303;48.896;13.342;2023-08-20T12:00:23;93543.88;;;37.88;28.12
39613;BME280;25303;48.896;13.342;2023-08-20T12:03:09;93538.19;;;37.90;27.67
39613;BME280;25303;48.896;13.342;2023-08-20T12:05:52;93533.81;;;37.62;28.38
39613;BME280;25303;48.896;13.342;2023-08-20T12:08:37;93532.41;;;37.33;28.79
39613;BME280;25303;48.896;13.342;2023-08-20T12:11:24;93534.34;;;37.42;28.95
39613;BME280;25303;48.896;13.342;2023-08-20T12:14:08;93528.91;;;37.64;28.79
39613;BME280;25303;48.896;13.342;2023-08-20T12:16:53;93530.53;;;37.74;28.57
39613;BME280;25303;48.896;13.342;2023-08-20T12:19:36;93530.56;;;37.83;28.92
39613;BME280;25303;48.896;13.342;2023-08-20T12:22:19;93526.44;;;37.85;29.00
39613;BME280;25303;48.896;13.342;2023-08-20T12:25:03;93519.06;;;37.91;28.75
39613;BME280;25303;48.896;13.342;2023-08-20T12:27:47;93520.66;;;37.92;28.01
39613;BME280;25303;48.896;13.342;2023-08-20T12:30:30;93522.06;;;37.90;28.20
39613;BME280;25303;48.896;13.342;2023-08-20T12:33:16;93522.56;;;37.92;27.97
39613;BME280;25303;48.896;13.342;2023-08-20T12:35:59;93529.03;;;37.91;28.28
39613;BME280;25303;48.896;13.342;2023-08-20T12:38:42;93522.22;;;37.93;28.26
39613;BME280;25303;48.896;13.342;2023-08-20T12:41:25;93509.41;;;37.90;28.05
39613;BME280;25303;48.896;13.342;2023-08-20T12:44:10;93508.31;;;37.91;28.39
39613;BME280;25303;48.896;13.342;2023-08-20T12:46:53;93509.13;;;37.92;28.51
39613;BME280;25303;48.896;13.342;2023-08-20T12:49:36;93501.53;;;37.94;28.41
39613;BME280;25303;48.896;13.342;2023-08-20T12:52:18;93510.94;;;37.82;28.60
39613;BME280;25303;48.896;13.342;2023-08-20T12:55:02;93512.84;;;37.82;27.99
39613;BME280;25303;48.896;13.342;2023-08-20T12:57:52;93507.97;;;37.84;28.04
39613;BME280;25303;48.896;13.342;2023-08-20T13:00:37;93508.91;;;37.79;28.30
39613;BME280;25303;48.896;13.342;2023-08-20T13:03:21;93500.38;;;37.77;28.41
39613;BME280;25303;48.896;13.342;2023-08-20T13:06:05;93501.59;;;37.71;28.42
39613;BME280;25303;48.896;13.342;2023-08-20T13:08:49;93502.56;;;37.75;28.62
39613;BME280;25303;48.896;13.342;2023-08-20T13:11:32;93500.38;;;37.77;27.96
39613;BME280;25303;48.896;13.342;2023-08-20T13:14:16;93490.88;;;37.80;28.81
39613;BME280;25303;48.896;13.342;2023-08-20T13:17:01;93487.72;;;37.87;28.18
39613;BME280;25303;48.896;13.342;2023-08-20T13:19:44;93497.38;;;37.88;28.32
39613;BME280;25303;48.896;13.342;2023-08-20T13:22:27;93489.16;;;37.84;27.42
39613;BME280;25303;48.896;13.342;2023-08-20T13:25:10;93493.41;;;37.36;28.11
39613;BME280;25303;48.896;13.342;2023-08-20T13:27:53;93492.78;;;37.39;29.20
39613;BME280;25303;48.896;13.342;2023-08-20T13:30:36;93488.25;;;37.48;29.06
39613;BME280;25303;48.896;13.342;2023-08-20T13:33:20;93498.41;;;37.60;28.40
39613;BME280;25303;48.896;13.342;2023-08-20T13:36:03;93496.53;;;37.61;28.96
39613;BME280;25303;48.896;13.342;2023-08-20T13:38:46;93498.44;;;37.69;28.97
39613;BME280;25303;48.896;13.342;2023-08-20T13:41:29;93498.78;;;37.76;28.51
39613;BME280;25303;48.896;13.342;2023-08-20T13:44:13;93499.53;;;37.28;28.14
39613;BME280;25303;48.896;13.342;2023-08-20T13:46:56;93507.34;;;37.15;27.82
39613;BME280;25303;48.896;13.342;2023-08-20T13:49:40;93497.97;;;37.04;29.09
39613;BME280;25303;48.896;13.342;2023-08-20T13:52:23;93499.34;;;37.24;28.04
39613;BME280;25303;48.896;13.342;2023-08-20T13:55:07;93511.16;;;37.14;28.04
39613;BME280;25303;48.896;13.342;2023-08-20T13:57:50;93502.19;;;36.96;28.24
39613;BME280;25303;48.896;13.342;2023-08-20T14:00:33;93498.72;;;36.50;28.31
39613;BME280;25303;48.896;13.342;2023-08-20T14:03:16;93501.31;;;35.91;28.41
39613;BME280;25303;48.896;13.342;2023-08-20T14:06:01;93490.31;;;34.89;29.01
39613;BME280;25303;48.896;13.342;2023-08-20T14:08:44;93493.47;;;34.39;29.62
39613;BME280;25303;48.896;13.342;2023-08-20T14:11:27;93491.38;;;33.98;29.70
39613;BME280;25303;48.896;13.342;2023-08-20T14:14:10;93490.16;;;33.66;29.78
39613;BME280;25303;48.896;13.342;2023-08-20T14:16:53;93487.38;;;33.52;30.10
39613;BME280;25303;48.896;13.342;2023-08-20T14:19:36;93493.06;;;33.45;29.62